sensor_id;sensor_type;location;lat;lon;timestamp;temperature;humidity
20489;DHT22;10403;54.092;12.122;2023-12-22T00:00:01;6.30;97.60
20489;DHT22;10403;54.092;12.122;2023-12-22T00:02:28;6.30;97.20
20489;DHT22;10403;54.092;12.122;2023-12-22T00:04:55;6.30;96.70
20489;DHT22;10403;54.092;12.122;2023-12-22T00:07:23;6.20;96.60
20489;DHT22;10403;54.092;12.122;2023-12-22T00:09:53;6.20;96.50
20489;DHT22;10403;54.092;12.122;2023-12-22T00:12:20;6.20;96.40
20489;DHT22;10403;54.092;12.122;2023-12-22T00:14:47;6.20;96.40
20489;DHT22;10403;54.092;12.122;2023-12-22T00:17:14;6.20;96.40
20489;DHT22;10403;54.092;12.122;2023-12-22T00:19:42;6.10;96.40
20489;DHT22;10403;54.092;12.122;2023-12-22T00:22:09;6.10;96.50
20489;DHT22;10403;54.092;12.122;2023-12-22T00:24:36;6.10;96.60
20489;DHT22;10403;54.092;12.122;2023-12-22T00:27:04;6.10;96.60
20489;DHT22;10403;54.092;12.122;2023-12-22T00:29:31;6.10;96.80
20489;DHT22;10403;54.092;12.122;2023-12-22T00:32:01;6.10;97.00
20489;DHT22;10403;54.092;12.122;2023-12-22T00:34:28;6.10;97.20
20489;DHT22;10403;54.092;12.122;2023-12-22T00:36:55;6.10;97.40
20489;DHT22;10403;54.092;12.122;2023-12-22T00:39:22;6.00;97.50
20489;DHT22;10403;54.092;12.122;2023-12-22T00:41:50;6.00;97.90
20489;DHT22;10403;54.092;12.122;2023-12-22T00:44:17;6.00;97.70
20489;DHT22;10403;54.092;12.122;2023-12-22T00:46:44;5.90;97.80
20489;DHT22;10403;54.092;12.122;2023-12-22T00:49:11;5.90;98.20
20489;DHT22;10403;54.092;12.122;2023-12-22T00:51:38;5.80;97.90
20489;DHT22;10403;54.092;12.122;2023-12-22T00:54:05;5.80;98.10
20489;DHT22;10403;54.092;12.122;2023-12-22T00:56:32;5.80;98.20
20489;DHT22;10403;54.092;12.122;2023-12-22T00:59:00;5.80;98.30
20489;DHT22;10403;54.092;12.122;2023-12-22T01:01:37;5.80;98.40
20489;DHT22;10403;54.092;12.122;2023-12-22T01:04:04;5.70;98.40
20489;DHT22;10403;54.092;12.122;2023-12-22T01:06:31;5.70;98.30
20489;DHT22;10403;54.092;12.122;2023-12-22T01:08:58;5.80;98.30
20489;DHT22;10403;54.092;12.122;2023-12-22T01:11:26;5.70;98.10
20489;DHT22;10403;54.092;12.122;2023-12-22T01:13:53;5.70;97.80
20489;DHT22;10403;54.092;12.122;2023-12-22T01:16:20;5.80;97.80
20489;DHT22;10403;54.092;12.122;2023-12-22T01:18:49;5.70;97.70
20489;DHT22;10403;54.092;12.122;2023-12-22T01:21:20;5.70;97.60
20489;DHT22;10403;54.092;12.122;2023-12-22T01:23:47;5.70;97.50
20489;DHT22;10403;54.092;12.122;2023-12-22T01:26:14;5.70;97.40
20489;DHT22;10403;54.092;12.122;2023-12-22T01:28:41;5.70;97.30
20489;DHT22;10403;54.092;12.122;2023-12-22T01:31:09;5.70;97.30
20489;DHT22;10403;54.092;12.122;2023-12-22T01:33:36;5.60;97.20
20489;DHT22;10403;54.092;12.122;2023-12-22T01:36:03;5.70;97.20
20489;DHT22;10403;54.092;12.122;2023-12-22T01:38:31;5.70;97.20
20489;DHT22;10403;54.092;12.122;2023-12-22T01:40:58;5.70;97.10
20489;DHT22;10403;54.092;12.122;2023-12-22T01:43:25;5.70;97.10
20489;DHT22;10403;54.092;12.122;2023-12-22T01:45:55;5.70;96.90
20489;DHT22;10403;54.092;12.122;2023-12-22T01:48:24;5.70;96.80
20489;DHT22;10403;54.092;12.122;2023-12-22T01:50:55;5.70;96.80
20489;DHT22;10403;54.092;12.122;2023-12-22T01:53:24;5.70;96.70
20489;DHT22;10403;54.092;12.122;2023-12-22T01:55:54;5.70;96.70
20489;DHT22;10403;54.092;12.122;2023-12-22T01:58:23;5.70;96.70
20489;DHT22;10403;54.092;12.122;2023-12-22T02:00:52;5.70;96.70
20489;DHT22;10403;54.092;12.122;2023-12-22T02:03:21;5.70;96.80
20489;DHT22;10403;54.092;12.122;2023-12-22T02:05:49;5.70;96.90
20489;DHT22;10403;54.092;12.122;2023-12-22T02:08:21;5.70;97.10
20489;DHT22;10403;54.092;12.122;2023-12-22T02:10:50;5.70;97.20
20489;DHT22;10403;54.092;12.122;2023-12-22T02:13:18;5.70;97.40
20489;DHT22;10403;54.092;12.122;2023-12-22T02:15:47;5.70;97.40
20489;DHT22;10403;54.092;12.122;2023-12-22T02:18:24;5.70;97.40
20489;DHT22;10403;54.092;12.122;2023-12-22T02:20:53;5.70;97.30
20489;DHT22;10403;54.092;12.122;2023-12-22T02:23:20;5.70;97.30
20489;DHT22;10403;54.092;12.122;2023-12-22T02:25:50;5.70;97.40
20489;DHT22;10403;54.092;12.122;2023-12-22T02:28:25;5.70;97.40
20489;DHT22;10403;54.092;12.122;2023-12-22T02:31:10;5.70;97.50
20489;DHT22;10403;54.092;12.122;2023-12-22T02:33:46;5.70;97.60
20489;DHT22;10403;54.092;12.122;2023-12-22T02:36:15;5.70;97.50
20489;DHT22;10403;54.092;12.122;2023-12-22T02:38:45;5.70;97.50
20489;DHT22;10403;54.092;12.122;2023-12-22T02:41:13;5.70;97.50
20489;DHT22;10403;54.092;12.122;2023-12-22T02:43:41;5.70;97.50
20489;DHT22;10403;54.092;12.122;2023-12-22T02:46:15;5.70;97.50
20489;DHT22;10403;54.092;12.122;2023-12-22T02:48:42;5.70;97.50
20489;DHT22;10403;54.092;12.122;2023-12-22T02:51:09;5.80;97.60
20489;DHT22;10403;54.092;12.122;2023-12-22T02:53:37;5.80;97.60
20489;DHT22;10403;54.092;12.122;2023-12-22T02:56:04;5.70;97.60
20489;DHT22;10403;54.092;12.122;2023-12-22T02:58:31;5.80;97.70
20489;DHT22;10403;54.092;12.122;2023-12-22T03:00:59;5.80;97.80
20489;DHT22;10403;54.092;12.122;2023-12-22T03:03:26;5.80;97.90
20489;DHT22;10403;54.092;12.122;2023-12-22T03:05:53;5.90;98.00
20489;DHT22;10403;54.092;12.122;2023-12-22T03:08:20;5.80;98.00
20489;DHT22;10403;54.092;12.122;2023-12-22T03:10:47;5.90;98.10
20489;DHT22;10403;54.092;12.122;2023-12-22T03:13:14;5.90;98.10
20489;DHT22;10403;54.092;12.122;2023-12-22T03:15:41;5.90;98.10
20489;DHT22;10403;54.092;12.122;2023-12-22T03:18:09;5.80;97.90
20489;DHT22;10403;54.092;12.122;2023-12-22T03:20:36;5.90;97.70
20489;DHT22;10403;54.092;12.122;2023-12-22T03:23:03;5.90;97.40
20489;DHT22;10403;54.092;12.122;2023-12-22T03:25:30;5.90;97.30
20489;DHT22;10403;54.092;12.122;2023-12-22T03:27:57;6.00;97.10
20489;DHT22;10403;54.092;12.122;2023-12-22T03:30:24;6.00;97.00
20489;DHT22;10403;54.092;12.122;2023-12-22T03:32:52;6.00;96.90
20489;DHT22;10403;54.092;12.122;2023-12-22T03:35:19;6.00;96.90
20489;DHT22;10403;54.092;12.122;2023-12-22T03:37:46;6.00;97.00
20489;DHT22;10403;54.092;12.122;2023-12-22T03:40:14;6.00;97.00
20489;DHT22;10403;54.092;12.122;2023-12-22T03:42:41;6.00;97.10
20489;DHT22;10403;54.092;12.122;2023-12-22T03:45:08;6.00;97.30
20489;DHT22;10403;54.092;12.122;2023-12-22T03:47:35;5.90;97.40
20489;DHT22;10403;54.092;12.122;2023-12-22T03:50:03;5.90;97.50
20489;DHT22;10403;54.092;12.122;2023-12-22T03:52:30;5.90;97.50
20489;DHT22;10403;54.092;12.122;2023-12-22T03:54:57;6.00;97.60
20489;DHT22;10403;54.092;12.122;2023-12-22T03:57:24;5.90;97.60
20489;DHT22;10403;54.092;12.122;2023-12-22T03:59:51;5.90;97.70
20489;DHT22;10403;54.092;12.122;2023-12-22T04:02:18;5.90;97.60
20489;DHT22;10403;54.092;12.122;2023-12-22T04:04:46;5.90;97.30
20489;DHT22;10403;54.092;12.122;2023-12-22T04:07:13;5.90;97.20
20489;DHT22;10403;54.092;12.122;2023-12-22T04:09:40;5.90;97.00
20489;DHT22;10403;54.092;12.122;2023-12-22T04:12:07;5.90;96.90
20489;DHT22;10403;54.092;12.122;2023-12-22T04:14:34;5.80;96.80
20489;DHT22;10403;54.092;12.122;2023-12-22T04:17:01;5.80;96.90
20489;DHT22;10403;54.092;12.122;2023-12-22T04:19:29;5.80;96.90
20489;DHT22;10403;54.092;12.122;2023-12-22T04:21:56;5.70;97.00
20489;DHT22;10403;54.092;12.122;2023-12-22T04:24:23;5.60;97.10
20489;DHT22;10403;54.092;12.122;2023-12-22T04:26:50;5.50;97.30
20489;DHT22;10403;54.092;12.122;2023-12-22T04:29:17;5.50;97.50
20489;DHT22;10403;54.092;12.122;2023-12-22T04:31:44;5.40;97.60
20489;DHT22;10403;54.092;12.122;2023-12-22T04:34:15;5.40;97.70
20489;DHT22;10403;54.092;12.122;2023-12-22T04:36:42;5.40;97.80
20489;DHT22;10403;54.092;12.122;2023-12-22T04:39:10;5.30;98.10
20489;DHT22;10403;54.092;12.122;2023-12-22T04:41:37;5.30;97.90
20489;DHT22;10403;54.092;12.122;2023-12-22T04:44:04;5.30;98.00
20489;DHT22;10403;54.092;12.122;2023-12-22T04:46:31;5.30;98.00
20489;DHT22;10403;54.092;12.122;2023-12-22T04:48:58;5.20;98.10
20489;DHT22;10403;54.092;12.122;2023-12-22T04:51:26;5.20;98.20
20489;DHT22;10403;54.092;12.122;2023-12-22T04:53:53;5.20;98.30
20489;DHT22;10403;54.092;12.122;2023-12-22T04:56:20;5.20;98.40
20489;DHT22;10403;54.092;12.122;2023-12-22T04:58:47;5.10;98.40
20489;DHT22;10403;54.092;12.122;2023-12-22T05:01:14;5.10;98.50
20489;DHT22;10403;54.092;12.122;2023-12-22T05:03:41;5.10;98.60
20489;DHT22;10403;54.092;12.122;2023-12-22T05:06:09;5.10;98.70
20489;DHT22;10403;54.092;12.122;2023-12-22T05:08:36;5.00;98.80
20489;DHT22;10403;54.092;12.122;2023-12-22T05:11:03;5.00;98.90
20489;DHT22;10403;54.092;12.122;2023-12-22T05:13:30;5.00;99.10
20489;DHT22;10403;54.092;12.122;2023-12-22T05:15:57;5.00;99.30
20489;DHT22;10403;54.092;12.122;2023-12-22T05:18:25;5.00;99.40
20489;DHT22;10403;54.092;12.122;2023-12-22T05:20:52;4.90;99.60
20489;DHT22;10403;54.092;12.122;2023-12-22T05:23:21;4.90;99.70
20489;DHT22;10403;54.092;12.122;2023-12-22T05:25:48;4.90;99.80
20489;DHT22;10403;54.092;12.122;2023-12-22T05:28:15;4.90;99.90
20489;DHT22;10403;54.092;12.122;2023-12-22T05:30:42;4.90;99.90
20489;DHT22;10403;54.092;12.122;2023-12-22T05:33:09;4.90;99.90
20489;DHT22;10403;54.092;12.122;2023-12-22T05:35:36;4.90;99.90
20489;DHT22;10403;54.092;12.122;2023-12-22T05:38:06;4.90;99.90
20489;DHT22;10403;54.092;12.122;2023-12-22T05:40:33;4.90;99.90
20489;DHT22;10403;54.092;12.122;2023-12-22T05:43:01;5.00;99.90
20489;DHT22;10403;54.092;12.122;2023-12-22T05:45:28;5.00;99.90
20489;DHT22;10403;54.092;12.122;2023-12-22T05:47:55;5.00;99.90
20489;DHT22;10403;54.092;12.122;2023-12-22T05:50:22;5.10;99.90
20489;DHT22;10403;54.092;12.122;2023-12-22T05:52:50;5.10;99.90
20489;DHT22;10403;54.092;12.122;2023-12-22T05:55:17;5.20;99.90
20489;DHT22;10403;54.092;12.122;2023-12-22T05:57:44;5.20;99.90
20489;DHT22;10403;54.092;12.122;2023-12-22T06:00:12;5.20;99.90
20489;DHT22;10403;54.092;12.122;2023-12-22T06:02:42;5.20;99.90
20489;DHT22;10403;54.092;12.122;2023-12-22T06:05:09;5.30;99.90
20489;DHT22;10403;54.092;12.122;2023-12-22T06:07:36;5.30;99.90
20489;DHT22;10403;54.092;12.122;2023-12-22T06:10:03;5.40;99.90
20489;DHT22;10403;54.092;12.122;2023-12-22T06:12:31;5.40;99.90
20489;DHT22;10403;54.092;12.122;2023-12-22T06:14:58;5.40;99.80
20489;DHT22;10403;54.092;12.122;2023-12-22T06:17:25;5.50;99.70
20489;DHT22;10403;54.092;12.122;2023-12-22T06:19:52;5.50;99.60
20489;DHT22;10403;54.092;12.122;2023-12-22T06:22:19;5.50;99.60
20489;DHT22;10403;54.092;12.122;2023-12-22T06:24:48;5.50;99.60
20489;DHT22;10403;54.092;12.122;2023-12-22T06:27:15;5.60;99.60
20489;DHT22;10403;54.092;12.122;2023-12-22T06:29:42;5.60;99.50
20489;DHT22;10403;54.092;12.122;2023-12-22T06:32:09;5.60;99.50
20489;DHT22;10403;54.092;12.122;2023-12-22T06:34:36;5.60;99.50
20489;DHT22;10403;54.092;12.122;2023-12-22T06:37:03;5.60;99.60
20489;DHT22;10403;54.092;12.122;2023-12-22T06:39:31;5.60;99.60
20489;DHT22;10403;54.092;12.122;2023-12-22T06:41:58;5.70;99.70
20489;DHT22;10403;54.092;12.122;2023-12-22T06:44:25;5.70;99.70
20489;DHT22;10403;54.092;12.122;2023-12-22T06:46:53;5.70;99.70
20489;DHT22;10403;54.092;12.122;2023-12-22T06:49:20;5.70;99.50
20489;DHT22;10403;54.092;12.122;2023-12-22T06:51:48;5.70;99.40
20489;DHT22;10403;54.092;12.122;2023-12-22T06:54:15;5.70;99.30
20489;DHT22;10403;54.092;12.122;2023-12-22T06:56:44;5.70;99.40
20489;DHT22;10403;54.092;12.122;2023-12-22T06:59:11;5.70;99.50
20489;DHT22;10403;54.092;12.122;2023-12-22T07:01:41;5.70;99.50
20489;DHT22;10403;54.092;12.122;2023-12-22T07:04:18;5.70;99.50
20489;DHT22;10403;54.092;12.122;2023-12-22T07:06:45;5.70;99.50
20489;DHT22;10403;54.092;12.122;2023-12-22T07:11:46;5.70;99.40
20489;DHT22;10403;54.092;12.122;2023-12-22T07:14:14;5.70;99.20
20489;DHT22;10403;54.092;12.122;2023-12-22T07:16:42;5.70;99.10
20489;DHT22;10403;54.092;12.122;2023-12-22T07:19:10;5.70;99.10
20489;DHT22;10403;54.092;12.122;2023-12-22T07:21:40;5.70;99.00
20489;DHT22;10403;54.092;12.122;2023-12-22T07:24:12;5.70;98.90
20489;DHT22;10403;54.092;12.122;2023-12-22T07:26:42;5.70;98.70
20489;DHT22;10403;54.092;12.122;2023-12-22T07:29:11;5.70;98.60
20489;DHT22;10403;54.092;12.122;2023-12-22T07:31:38;5.70;98.40
20489;DHT22;10403;54.092;12.122;2023-12-22T07:34:06;5.70;98.40
20489;DHT22;10403;54.092;12.122;2023-12-22T07:36:35;5.70;98.50
20489;DHT22;10403;54.092;12.122;2023-12-22T07:39:13;5.70;98.50
20489;DHT22;10403;54.092;12.122;2023-12-22T07:41:43;5.70;98.50
20489;DHT22;10403;54.092;12.122;2023-12-22T07:44:13;5.70;98.50
20489;DHT22;10403;54.092;12.122;2023-12-22T07:46:41;5.70;98.50
20489;DHT22;10403;54.092;12.122;2023-12-22T07:49:09;5.70;98.60
20489;DHT22;10403;54.092;12.122;2023-12-22T07:51:38;5.70;98.70
20489;DHT22;10403;54.092;12.122;2023-12-22T07:54:07;5.70;98.70
20489;DHT22;10403;54.092;12.122;2023-12-22T07:56:35;5.70;98.80
20489;DHT22;10403;54.092;12.122;2023-12-22T07:59:03;5.70;98.90
20489;DHT22;10403;54.092;12.122;2023-12-22T08:01:49;5.70;98.90
20489;DHT22;10403;54.092;12.122;2023-12-22T08:04:16;5.70;99.00
20489;DHT22;10403;54.092;12.122;2023-12-22T08:06:43;5.70;99.10
20489;DHT22;10403;54.092;12.122;2023-12-22T08:09:10;5.80;99.20
20489;DHT22;10403;54.092;12.122;2023-12-22T08:11:37;5.70;99.40
20489;DHT22;10403;54.092;12.122;2023-12-22T08:14:04;5.60;99.50
20489;DHT22;10403;54.092;12.122;2023-12-22T08:16:31;5.60;99.80
20489;DHT22;10403;54.092;12.122;2023-12-22T08:18:59;5.60;99.90
20489;DHT22;10403;54.092;12.122;2023-12-22T08:21:27;5.60;99.90
20489;DHT22;10403;54.092;12.122;2023-12-22T08:24:09;5.50;99.90
20489;DHT22;10403;54.092;12.122;2023-12-22T08:26:47;5.50;99.90
20489;DHT22;10403;54.092;12.122;2023-12-22T08:29:14;5.50;99.90
20489;DHT22;10403;54.092;12.122;2023-12-22T08:31:43;5.50;99.90
20489;DHT22;10403;54.092;12.122;2023-12-22T08:34:13;5.60;99.90
20489;DHT22;10403;54.092;12.122;2023-12-22T08:36:40;5.50;99.90
20489;DHT22;10403;54.092;12.122;2023-12-22T08:39:07;5.50;99.90
20489;DHT22;10403;54.092;12.122;2023-12-22T08:41:35;5.50;99.90
20489;DHT22;10403;54.092;12.122;2023-12-22T08:44:06;5.60;99.90
20489;DHT22;10403;54.092;12.122;2023-12-22T08:46:34;5.60;99.90
20489;DHT22;10403;54.092;12.122;2023-12-22T08:49:02;5.60;99.90
20489;DHT22;10403;54.092;12.122;2023-12-22T08:51:30;5.60;99.90
20489;DHT22;10403;54.092;12.122;2023-12-22T08:53:58;5.60;99.90
20489;DHT22;10403;54.092;12.122;2023-12-22T08:56:25;5.60;99.90
20489;DHT22;10403;54.092;12.122;2023-12-22T08:58:56;5.60;99.90
20489;DHT22;10403;54.092;12.122;2023-12-22T09:01:26;5.70;99.80
20489;DHT22;10403;54.092;12.122;2023-12-22T09:03:53;5.70;99.70
20489;DHT22;10403;54.092;12.122;2023-12-22T09:06:22;5.70;99.70
20489;DHT22;10403;54.092;12.122;2023-12-22T09:08:49;5.70;99.70
20489;DHT22;10403;54.092;12.122;2023-12-22T09:11:18;5.70;99.80
20489;DHT22;10403;54.092;12.122;2023-12-22T09:13:47;5.70;99.80
20489;DHT22;10403;54.092;12.122;2023-12-22T09:16:16;5.70;99.80
20489;DHT22;10403;54.092;12.122;2023-12-22T09:18:48;5.60;99.90
20489;DHT22;10403;54.092;12.122;2023-12-22T09:21:17;5.60;99.90
20489;DHT22;10403;54.092;12.122;2023-12-22T09:23:45;5.70;99.90
20489;DHT22;10403;54.092;12.122;2023-12-22T09:26:14;5.70;99.90
20489;DHT22;10403;54.092;12.122;2023-12-22T09:28:42;5.70;99.90
20489;DHT22;10403;54.092;12.122;2023-12-22T09:31:09;5.70;99.90
20489;DHT22;10403;54.092;12.122;2023-12-22T09:33:37;5.60;99.90
20489;DHT22;10403;54.092;12.122;2023-12-22T09:36:04;5.70;99.90
20489;DHT22;10403;54.092;12.122;2023-12-22T09:38:32;5.60;99.90
20489;DHT22;10403;54.092;12.122;2023-12-22T09:41:01;6.00;99.90
20489;DHT22;10403;54.092;12.122;2023-12-22T09:43:29;5.70;99.90
20489;DHT22;10403;54.092;12.122;2023-12-22T09:45:58;5.70;99.90
20489;DHT22;10403;54.092;12.122;2023-12-22T09:48:26;5.60;99.90
20489;DHT22;10403;54.092;12.122;2023-12-22T09:50:55;5.70;99.90
20489;DHT22;10403;54.092;12.122;2023-12-22T09:53:26;5.70;99.90
20489;DHT22;10403;54.092;12.122;2023-12-22T09:55:55;5.20;99.90
20489;DHT22;10403;54.092;12.122;2023-12-22T09:58:22;5.70;99.90
20489;DHT22;10403;54.092;12.122;2023-12-22T10:00:51;5.70;99.90
20489;DHT22;10403;54.092;12.122;2023-12-22T10:03:20;5.80;99.90
20489;DHT22;10403;54.092;12.122;2023-12-22T10:05:48;5.80;99.90
20489;DHT22;10403;54.092;12.122;2023-12-22T10:08:17;5.80;99.90
20489;DHT22;10403;54.092;12.122;2023-12-22T10:10:47;5.80;99.90
20489;DHT22;10403;54.092;12.122;2023-12-22T10:13:15;5.80;99.90
20489;DHT22;10403;54.092;12.122;2023-12-22T10:15:43;5.70;99.90
20489;DHT22;10403;54.092;12.122;2023-12-22T10:18:12;5.70;99.90
20489;DHT22;10403;54.092;12.122;2023-12-22T10:20:40;5.70;99.90
20489;DHT22;10403;54.092;12.122;2023-12-22T10:23:07;5.70;99.90
20489;DHT22;10403;54.092;12.122;2023-12-22T10:25:35;5.70;99.80
20489;DHT22;10403;54.092;12.122;2023-12-22T10:28:02;5.70;99.60
20489;DHT22;10403;54.092;12.122;2023-12-22T10:30:30;5.70;99.40
20489;DHT22;10403;54.092;12.122;2023-12-22T10:32:59;5.70;99.30
20489;DHT22;10403;54.092;12.122;2023-12-22T10:35:26;5.70;99.10
20489;DHT22;10403;54.092;12.122;2023-12-22T10:37:55;5.70;99.00
20489;DHT22;10403;54.092;12.122;2023-12-22T10:40:26;5.70;99.00
20489;DHT22;10403;54.092;12.122;2023-12-22T10:42:54;5.70;98.80
20489;DHT22;10403;54.092;12.122;2023-12-22T10:45:22;5.70;98.80
20489;DHT22;10403;54.092;12.122;2023-12-22T10:47:50;5.70;98.70
20489;DHT22;10403;54.092;12.122;2023-12-22T10:50:19;5.70;98.50
20489;DHT22;10403;54.092;12.122;2023-12-22T10:52:50;5.70;98.40
20489;DHT22;10403;54.092;12.122;2023-12-22T10:55:19;5.70;98.40
20489;DHT22;10403;54.092;12.122;2023-12-22T10:57:46;5.60;98.30
20489;DHT22;10403;54.092;12.122;2023-12-22T11:00:20;5.70;98.30
20489;DHT22;10403;54.092;12.122;2023-12-22T11:02:48;5.70;98.20
20489;DHT22;10403;54.092;12.122;2023-12-22T11:05:18;5.70;98.20
20489;DHT22;10403;54.092;12.122;2023-12-22T11:07:49;5.70;98.10
20489;DHT22;10403;54.092;12.122;2023-12-22T11:10:20;5.70;98.20
20489;DHT22;10403;54.092;12.122;2023-12-22T11:12:48;5.70;98.20
20489;DHT22;10403;54.092;12.122;2023-12-22T11:15:18;5.70;98.20
20489;DHT22;10403;54.092;12.122;2023-12-22T11:17:48;5.70;98.30
20489;DHT22;10403;54.092;12.122;2023-12-22T11:20:19;5.70;98.20
20489;DHT22;10403;54.092;12.122;2023-12-22T11:22:51;5.70;98.20
20489;DHT22;10403;54.092;12.122;2023-12-22T11:25:19;5.70;98.30
20489;DHT22;10403;54.092;12.122;2023-12-22T11:27:53;5.70;98.30
20489;DHT22;10403;54.092;12.122;2023-12-22T11:30:23;5.70;98.30
20489;DHT22;10403;54.092;12.122;2023-12-22T11:32:53;5.70;98.30
20489;DHT22;10403;54.092;12.122;2023-12-22T11:35:23;5.70;98.30
20489;DHT22;10403;54.092;12.122;2023-12-22T11:38:01;5.70;98.30
20489;DHT22;10403;54.092;12.122;2023-12-22T11:40:31;5.70;98.40
20489;DHT22;10403;54.092;12.122;2023-12-22T11:42:59;5.80;98.50
20489;DHT22;10403;54.092;12.122;2023-12-22T11:45:30;5.80;98.60
20489;DHT22;10403;54.092;12.122;2023-12-22T11:48:08;5.80;98.70
20489;DHT22;10403;54.092;12.122;2023-12-22T11:50:37;5.80;98.80
20489;DHT22;10403;54.092;12.122;2023-12-22T11:53:22;5.80;98.90
20489;DHT22;10403;54.092;12.122;2023-12-22T11:56:04;5.80;99.00
20489;DHT22;10403;54.092;12.122;2023-12-22T11:58:46;5.70;98.90
20489;DHT22;10403;54.092;12.122;2023-12-22T12:01:23;5.70;98.90
20489;DHT22;10403;54.092;12.122;2023-12-22T12:08:54;5.70;98.80
20489;DHT22;10403;54.092;12.122;2023-12-22T12:11:22;5.70;98.80
20489;DHT22;10403;54.092;12.122;2023-12-22T12:13:50;5.70;98.70
20489;DHT22;10403;54.092;12.122;2023-12-22T12:16:20;5.60;98.60
20489;DHT22;10403;54.092;12.122;2023-12-22T12:18:51;5.60;98.60
20489;DHT22;10403;54.092;12.122;2023-12-22T12:21:20;5.60;98.90
20489;DHT22;10403;54.092;12.122;2023-12-22T12:23:49;5.50;98.70
20489;DHT22;10403;54.092;12.122;2023-12-22T12:26:17;5.60;98.70
20489;DHT22;10403;54.092;12.122;2023-12-22T12:28:45;5.60;98.70
20489;DHT22;10403;54.092;12.122;2023-12-22T12:31:14;5.60;98.70
20489;DHT22;10403;54.092;12.122;2023-12-22T12:33:41;5.60;98.80
20489;DHT22;10403;54.092;12.122;2023-12-22T12:36:10;5.60;98.80
20489;DHT22;10403;54.092;12.122;2023-12-22T12:38:55;5.60;98.90
20489;DHT22;10403;54.092;12.122;2023-12-22T12:41:30;5.50;98.90
20489;DHT22;10403;54.092;12.122;2023-12-22T12:44:04;5.50;98.90
20489;DHT22;10403;54.092;12.122;2023-12-22T12:46:37;5.50;99.00
20489;DHT22;10403;54.092;12.122;2023-12-22T12:49:07;5.50;99.10
20489;DHT22;10403;54.092;12.122;2023-12-22T12:51:39;5.50;99.10
20489;DHT22;10403;54.092;12.122;2023-12-22T12:54:10;5.50;99.30
20489;DHT22;10403;54.092;12.122;2023-12-22T12:56:44;5.40;99.30
20489;DHT22;10403;54.092;12.122;2023-12-22T12:59:15;5.40;99.30
20489;DHT22;10403;54.092;12.122;2023-12-22T13:01:46;5.40;99.30
20489;DHT22;10403;54.092;12.122;2023-12-22T13:04:15;5.40;99.40
20489;DHT22;10403;54.092;12.122;2023-12-22T13:06:49;5.40;99.50
20489;DHT22;10403;54.092;12.122;2023-12-22T13:09:18;5.40;99.50
20489;DHT22;10403;54.092;12.122;2023-12-22T13:11:46;5.30;99.50
20489;DHT22;10403;54.092;12.122;2023-12-22T13:14:24;5.30;99.60
20489;DHT22;10403;54.092;12.122;2023-12-22T13:16:53;5.30;99.70
20489;DHT22;10403;54.092;12.122;2023-12-22T13:19:24;5.30;99.70
20489;DHT22;10403;54.092;12.122;2023-12-22T13:21:54;5.30;99.70
20489;DHT22;10403;54.092;12.122;2023-12-22T13:24:22;5.30;99.60
20489;DHT22;10403;54.092;12.122;2023-12-22T13:27:02;5.30;99.60
20489;DHT22;10403;54.092;12.122;2023-12-22T13:29:45;5.30;99.50
20489;DHT22;10403;54.092;12.122;2023-12-22T13:32:19;5.30;99.50
20489;DHT22;10403;54.092;12.122;2023-12-22T13:34:55;5.30;99.50
20489;DHT22;10403;54.092;12.122;2023-12-22T13:37:23;5.30;99.50
20489;DHT22;10403;54.092;12.122;2023-12-22T13:39:53;5.20;99.40
20489;DHT22;10403;54.092;12.122;2023-12-22T13:42:20;5.30;99.40
20489;DHT22;10403;54.092;12.122;2023-12-22T13:44:49;5.30;99.40
20489;DHT22;10403;54.092;12.122;2023-12-22T13:47:20;5.20;99.30
20489;DHT22;10403;54.092;12.122;2023-12-22T13:49:49;5.20;99.30
20489;DHT22;10403;54.092;12.122;2023-12-22T13:52:30;5.30;99.30
20489;DHT22;10403;54.092;12.122;2023-12-22T13:55:13;5.20;99.30
20489;DHT22;10403;54.092;12.122;2023-12-22T13:57:43;5.20;99.20
20489;DHT22;10403;54.092;12.122;2023-12-22T14:02:49;5.20;99.10
20489;DHT22;10403;54.092;12.122;2023-12-22T14:05:19;5.20;99.10
20489;DHT22;10403;54.092;12.122;2023-12-22T14:07:48;5.20;99.00
20489;DHT22;10403;54.092;12.122;2023-12-22T14:10:16;5.20;99.00
20489;DHT22;10403;54.092;12.122;2023-12-22T14:12:44;5.20;98.90
20489;DHT22;10403;54.092;12.122;2023-12-22T14:15:12;5.20;98.90
20489;DHT22;10403;54.092;12.122;2023-12-22T14:17:39;5.10;99.00
20489;DHT22;10403;54.092;12.122;2023-12-22T14:20:10;5.10;99.10
20489;DHT22;10403;54.092;12.122;2023-12-22T14:22:39;5.10;99.20
20489;DHT22;10403;54.092;12.122;2023-12-22T14:25:07;5.10;99.30
20489;DHT22;10403;54.092;12.122;2023-12-22T14:27:35;5.10;99.30
20489;DHT22;10403;54.092;12.122;2023-12-22T14:30:03;5.00;99.40
20489;DHT22;10403;54.092;12.122;2023-12-22T14:32:30;5.00;99.60
20489;DHT22;10403;54.092;12.122;2023-12-22T14:34:57;4.90;99.80
20489;DHT22;10403;54.092;12.122;2023-12-22T14:37:26;4.90;99.90
20489;DHT22;10403;54.092;12.122;2023-12-22T14:39:53;4.90;99.90
20489;DHT22;10403;54.092;12.122;2023-12-22T14:42:21;4.90;99.90
20489;DHT22;10403;54.092;12.122;2023-12-22T14:44:48;4.80;99.90
20489;DHT22;10403;54.092;12.122;2023-12-22T14:47:15;4.90;99.90
20489;DHT22;10403;54.092;12.122;2023-12-22T14:49:43;4.90;99.90
20489;DHT22;10403;54.092;12.122;2023-12-22T14:52:10;4.90;99.90
20489;DHT22;10403;54.092;12.122;2023-12-22T14:54:37;4.80;99.90
20489;DHT22;10403;54.092;12.122;2023-12-22T14:57:05;4.80;99.90
20489;DHT22;10403;54.092;12.122;2023-12-22T14:59:32;4.80;99.90
20489;DHT22;10403;54.092;12.122;2023-12-22T15:01:59;4.70;99.90
20489;DHT22;10403;54.092;12.122;2023-12-22T15:04:27;4.70;99.90
20489;DHT22;10403;54.092;12.122;2023-12-22T15:06:54;4.70;99.90
20489;DHT22;10403;54.092;12.122;2023-12-22T15:09:28;4.70;99.90
20489;DHT22;10403;54.092;12.122;2023-12-22T15:11:55;4.60;99.90
20489;DHT22;10403;54.092;12.122;2023-12-22T15:14:24;4.60;99.90
20489;DHT22;10403;54.092;12.122;2023-12-22T15:16:51;4.60;99.90
20489;DHT22;10403;54.092;12.122;2023-12-22T15:19:20;4.60;99.90
20489;DHT22;10403;54.092;12.122;2023-12-22T15:21:47;4.60;99.90
20489;DHT22;10403;54.092;12.122;2023-12-22T15:24:15;4.50;99.90
20489;DHT22;10403;54.092;12.122;2023-12-22T15:26:43;4.50;99.90
20489;DHT22;10403;54.092;12.122;2023-12-22T15:29:10;4.50;99.90
20489;DHT22;10403;54.092;12.122;2023-12-22T15:31:38;4.50;99.90
20489;DHT22;10403;54.092;12.122;2023-12-22T15:34:05;4.50;99.90
20489;DHT22;10403;54.092;12.122;2023-12-22T15:36:33;4.50;99.90
20489;DHT22;10403;54.092;12.122;2023-12-22T15:39:01;4.60;99.90
20489;DHT22;10403;54.092;12.122;2023-12-22T15:41:29;4.60;99.90
20489;DHT22;10403;54.092;12.122;2023-12-22T15:43:57;4.70;99.90
20489;DHT22;10403;54.092;12.122;2023-12-22T15:46:25;4.70;99.90
20489;DHT22;10403;54.092;12.122;2023-12-22T15:48:52;4.70;99.90